createdAt,value
2019-05-10T00:00:10.646Z,21.50
2019-05-10T00:02:56.166Z,21.50
2019-05-10T00:05:42.051Z,21.50
2019-05-10T00:08:27.861Z,21.60
2019-05-10T00:10:57.091Z,21.60
2019-05-10T00:13:25.472Z,21.60
2019-05-10T00:15:53.455Z,21.60
2019-05-10T00:18:21.387Z,21.70
2019-05-10T00:20:48.987Z,21.70
2019-05-10T00:23:16.569Z,21.70
2019-05-10T00:25:44.140Z,21.70
2019-05-10T00:28:11.719Z,21.80
2019-05-10T00:30:39.305Z,21.80
2019-05-10T00:33:06.901Z,21.80
2019-05-10T00:35:34.487Z,21.80
2019-05-10T00:38:02.055Z,21.80
2019-05-10T00:40:29.709Z,21.80
2019-05-10T00:42:57.282Z,21.80
2019-05-10T00:45:24.883Z,21.80
2019-05-10T00:47:52.436Z,21.80
2019-05-10T00:50:19.999Z,21.80
2019-05-10T00:52:47.571Z,21.90
2019-05-10T00:55:18.816Z,21.90
2019-05-10T00:57:44.443Z,21.90
2019-05-10T01:00:12.070Z,21.90
2019-05-10T01:02:39.621Z,21.90
2019-05-10T01:05:07.207Z,21.90
2019-05-10T01:07:34.879Z,21.90
2019-05-10T01:10:02.634Z,21.90
2019-05-10T01:12:30.222Z,21.90
2019-05-10T01:14:57.767Z,21.90
2019-05-10T01:17:25.393Z,22.00
2019-05-10T01:19:53.017Z,22.00
2019-05-10T01:22:20.604Z,22.00
2019-05-10T01:24:48.161Z,22.00
2019-05-10T01:27:15.800Z,22.00
2019-05-10T01:29:43.451Z,22.00
2019-05-10T01:32:11.113Z,22.00
2019-05-10T01:34:38.717Z,22.00
2019-05-10T01:37:06.257Z,22.00
2019-05-10T01:39:33.858Z,22.00
2019-05-10T01:42:01.448Z,22.00
2019-05-10T01:44:29.106Z,22.00
2019-05-10T01:46:56.663Z,22.00
2019-05-10T01:49:24.270Z,22.00
2019-05-10T01:51:51.884Z,22.00
2019-05-10T01:54:19.452Z,22.00
2019-05-10T01:56:47.009Z,22.00
2019-05-10T01:59:14.628Z,22.00
2019-05-10T02:01:42.209Z,22.00
2019-05-10T02:04:09.797Z,22.00
2019-05-10T02:06:37.368Z,22.10
2019-05-10T02:09:06.134Z,22.10
2019-05-10T02:11:33.694Z,22.00
2019-05-10T02:14:01.306Z,22.10
2019-05-10T02:16:28.900Z,22.00
2019-05-10T02:18:56.518Z,22.10
2019-05-10T02:21:24.058Z,22.00
2019-05-10T02:23:51.618Z,22.10
2019-05-10T02:26:19.244Z,22.00
2019-05-10T02:28:46.806Z,22.10
2019-05-10T02:31:14.412Z,22.10
2019-05-10T02:33:42.060Z,22.10
2019-05-10T02:36:09.611Z,22.10
2019-05-10T02:38:37.255Z,22.10
2019-05-10T02:41:04.841Z,22.10
2019-05-10T02:43:32.381Z,22.10
2019-05-10T02:45:59.995Z,22.10
2019-05-10T02:48:27.569Z,22.10
2019-05-10T02:50:55.222Z,22.10
2019-05-10T02:53:22.881Z,22.10
2019-05-10T02:55:50.495Z,22.10
2019-05-10T02:58:18.095Z,22.10
2019-05-10T03:00:45.674Z,22.10
2019-05-10T03:03:13.228Z,22.10
2019-05-10T03:05:42.006Z,22.10
2019-05-10T03:08:10.143Z,22.10
2019-05-10T03:10:38.009Z,22.10
2019-05-10T03:13:05.770Z,22.10
2019-05-10T03:15:35.008Z,22.10
2019-05-10T03:18:02.818Z,22.10
2019-05-10T03:20:31.573Z,22.10
2019-05-10T03:22:59.134Z,22.10
2019-05-10T03:25:26.716Z,22.10
2019-05-10T03:27:54.394Z,22.10
2019-05-10T03:30:22.139Z,22.10
2019-05-10T03:32:49.746Z,22.10
2019-05-10T03:35:17.322Z,22.10
2019-05-10T03:37:44.918Z,22.10
2019-05-10T03:40:12.495Z,22.10
2019-05-10T03:42:40.067Z,22.10
2019-05-10T03:45:07.683Z,22.10
2019-05-10T03:47:35.243Z,22.20
2019-05-10T03:50:03.679Z,22.20
2019-05-10T03:52:31.344Z,22.20
2019-05-10T03:54:58.903Z,22.20
2019-05-10T03:57:26.528Z,22.20
2019-05-10T03:59:54.133Z,22.20
2019-05-10T04:02:21.749Z,22.20
2019-05-10T04:04:49.286Z,22.20
2019-05-10T04:07:16.945Z,22.20
2019-05-10T04:09:44.555Z,22.20
2019-05-10T04:12:12.120Z,22.20
2019-05-10T04:14:39.704Z,22.20
2019-05-10T04:17:07.284Z,22.20
2019-05-10T04:19:34.878Z,22.20
2019-05-10T04:22:02.558Z,22.20
2019-05-10T04:24:30.238Z,22.20
2019-05-10T04:26:57.802Z,22.20
2019-05-10T04:29:25.349Z,22.20
2019-05-10T04:31:52.936Z,22.20
2019-05-10T04:34:20.524Z,22.20
2019-05-10T04:36:48.108Z,22.20
2019-05-10T04:39:15.659Z,22.20
2019-05-10T04:41:43.263Z,22.20
2019-05-10T04:44:10.865Z,22.20
2019-05-10T04:46:38.658Z,22.20
2019-05-10T04:49:06.278Z,22.20
2019-05-10T04:51:33.875Z,22.20
2019-05-10T04:54:01.441Z,22.20
2019-05-10T04:56:29.050Z,22.20
2019-05-10T04:58:56.712Z,22.30
2019-05-10T05:01:24.287Z,22.30
2019-05-10T05:03:51.844Z,22.20
2019-05-10T05:06:19.482Z,22.20
2019-05-10T05:08:47.073Z,22.30
2019-05-10T05:11:14.611Z,22.20
2019-05-10T05:13:42.227Z,22.20
2019-05-10T05:16:09.799Z,22.30
2019-05-10T05:18:37.397Z,22.30
2019-05-10T05:21:05.008Z,22.30
2019-05-10T05:23:32.559Z,22.30
2019-05-10T05:26:00.146Z,22.30
2019-05-10T05:28:27.729Z,22.30
2019-05-10T05:30:55.319Z,22.30
2019-05-10T05:33:22.885Z,22.30
2019-05-10T05:35:50.509Z,22.30
2019-05-10T05:38:18.136Z,22.30
2019-05-10T05:40:45.795Z,22.30
2019-05-10T05:43:13.414Z,22.30
2019-05-10T05:45:40.993Z,22.30
2019-05-10T05:48:08.538Z,22.30
2019-05-10T05:50:36.142Z,22.40
2019-05-10T05:53:03.729Z,22.40
2019-05-10T05:55:32.278Z,22.40
2019-05-10T05:58:04.726Z,22.40
2019-05-10T06:00:29.411Z,22.50
2019-05-10T06:02:57.006Z,22.40
2019-05-10T06:05:33.975Z,22.40
2019-05-10T06:07:53.911Z,22.50
2019-05-10T06:10:21.604Z,22.60
2019-05-10T06:12:50.337Z,22.70
2019-05-10T06:15:23.228Z,22.60
2019-05-10T06:17:56.161Z,22.60
2019-05-10T06:20:17.134Z,22.60
2019-05-10T06:23:04.160Z,22.50
2019-05-10T06:25:13.994Z,22.50
2019-05-10T06:27:43.223Z,22.50
2019-05-10T06:30:11.046Z,22.50
2019-05-10T06:32:38.652Z,22.50
2019-05-10T06:35:06.227Z,22.50
2019-05-10T06:37:33.834Z,22.40
2019-05-10T06:40:01.408Z,22.50
2019-05-10T06:42:34.479Z,22.50
2019-05-10T06:44:58.315Z,22.50
2019-05-10T06:47:25.858Z,22.50
2019-05-10T06:49:53.487Z,22.50
2019-05-10T06:52:21.764Z,22.50
2019-05-10T06:54:50.493Z,22.50
2019-05-10T06:57:19.347Z,22.50
2019-05-10T06:59:47.040Z,22.50
2019-05-10T07:02:14.614Z,22.50
2019-05-10T07:04:42.194Z,22.40
2019-05-10T07:07:22.096Z,22.50
2019-05-10T07:10:01.563Z,22.50
2019-05-10T07:12:09.371Z,22.50
2019-05-10T07:14:45.076Z,22.50
2019-05-10T07:17:07.125Z,22.50
2019-05-10T07:19:40.680Z,22.40
2019-05-10T07:22:04.009Z,22.40
2019-05-10T07:24:31.605Z,22.40
2019-05-10T07:27:02.252Z,22.50
2019-05-10T07:29:30.379Z,22.40
2019-05-10T07:31:57.834Z,22.50
2019-05-10T07:34:26.356Z,22.50
2019-05-10T07:36:53.981Z,22.50
2019-05-10T07:39:21.563Z,22.50
2019-05-10T07:41:49.177Z,22.50
2019-05-10T07:44:16.848Z,22.50
2019-05-10T07:46:46.492Z,22.50
2019-05-10T07:49:13.731Z,22.60
2019-05-10T07:51:41.306Z,22.60
2019-05-10T07:54:08.858Z,22.60
2019-05-10T07:56:38.954Z,22.60
2019-05-10T07:59:05.760Z,22.60
2019-05-10T08:01:34.959Z,22.60
2019-05-10T08:04:02.722Z,22.60
2019-05-10T08:06:33.956Z,22.60
2019-05-10T08:09:04.110Z,22.60
2019-05-10T08:11:28.986Z,22.70
2019-05-10T08:13:57.835Z,22.70
2019-05-10T08:16:25.883Z,22.70
2019-05-10T08:18:55.670Z,22.60
2019-05-10T08:21:26.259Z,22.60
2019-05-10T08:23:53.986Z,22.60
2019-05-10T08:26:24.570Z,22.60
2019-05-10T08:28:52.611Z,22.60
2019-05-10T08:31:22.163Z,22.60
2019-05-10T08:33:53.694Z,22.60
2019-05-10T08:36:18.567Z,22.60
2019-05-10T08:38:56.423Z,22.60
2019-05-10T08:41:18.255Z,22.60
2019-05-10T08:43:44.777Z,22.60
2019-05-10T08:46:12.363Z,22.60
2019-05-10T08:48:46.570Z,22.60
2019-05-10T08:51:09.260Z,22.60
2019-05-10T08:53:36.870Z,22.60
2019-05-10T08:56:07.645Z,22.60
2019-05-10T08:58:37.215Z,22.60
2019-05-10T09:01:16.704Z,22.60
2019-05-10T09:03:32.390Z,22.60
2019-05-10T09:06:05.370Z,22.60
2019-05-10T09:08:31.692Z,22.60
2019-05-10T09:10:58.529Z,22.60
2019-05-10T09:13:28.856Z,22.60
2019-05-10T09:15:57.005Z,22.60
2019-05-10T09:18:24.870Z,22.60
2019-05-10T09:20:54.251Z,22.60
2019-05-10T09:23:22.846Z,22.60
2019-05-10T09:25:51.917Z,22.60
2019-05-10T09:28:21.679Z,22.60
2019-05-10T09:30:57.554Z,22.60
2019-05-10T09:33:18.377Z,22.50
2019-05-10T09:35:51.524Z,22.50
2019-05-10T09:38:15.313Z,22.50
2019-05-10T09:40:51.390Z,22.60
2019-05-10T09:43:14.809Z,22.60
2019-05-10T09:45:42.373Z,22.60
2019-05-10T09:48:12.088Z,22.60
2019-05-10T09:50:44.853Z,22.60
2019-05-10T09:53:10.259Z,22.60
2019-05-10T09:55:38.215Z,22.60
2019-05-10T09:58:08.436Z,22.60
2019-05-10T10:00:37.970Z,22.60
2019-05-10T10:03:04.608Z,22.60
2019-05-10T10:05:32.181Z,22.60
2019-05-10T10:08:03.687Z,22.60
2019-05-10T10:10:32.299Z,22.60
2019-05-10T10:13:08.400Z,22.60
2019-05-10T10:15:33.624Z,22.60
2019-05-10T10:17:58.300Z,22.60
2019-05-10T10:20:29.801Z,22.60
2019-05-10T10:22:55.290Z,22.60
2019-05-10T10:25:22.907Z,22.60
2019-05-10T10:27:50.569Z,22.60
2019-05-10T10:30:21.578Z,22.60
2019-05-10T10:32:47.767Z,22.60
2019-05-10T10:35:18.868Z,22.60
2019-05-10T10:37:47.570Z,22.60
2019-05-10T10:40:18.170Z,22.60
2019-05-10T10:42:47.201Z,22.60
2019-05-10T10:45:13.847Z,22.60
2019-05-10T10:47:41.415Z,22.60
2019-05-10T10:50:13.159Z,22.60
2019-05-10T10:52:38.338Z,22.60
2019-05-10T10:55:11.233Z,22.60
2019-05-10T10:57:37.363Z,22.60
2019-05-10T11:00:09.429Z,22.50
2019-05-10T11:02:36.991Z,22.60
2019-05-10T11:05:05.411Z,22.50
2019-05-10T11:07:35.899Z,22.50
2019-05-10T11:10:14.337Z,22.60
2019-05-10T11:12:31.869Z,22.50
2019-05-10T11:15:01.127Z,22.50
2019-05-10T11:17:30.787Z,22.60
2019-05-10T11:20:00.259Z,22.50
2019-05-10T11:22:27.660Z,22.60
2019-05-10T11:25:00.718Z,22.60
2019-05-10T11:27:24.635Z,22.60
2019-05-10T11:29:54.967Z,22.60
2019-05-10T11:32:21.574Z,22.60
2019-05-10T11:34:49.180Z,22.50
2019-05-10T11:37:18.440Z,22.60
2019-05-10T11:39:47.050Z,22.60
2019-05-10T11:42:15.589Z,22.60
2019-05-10T11:44:50.178Z,22.60
2019-05-10T11:47:22.927Z,22.60
2019-05-10T11:49:41.982Z,22.60
2019-05-10T11:52:12.895Z,22.60
2019-05-10T11:54:38.881Z,22.60
2019-05-10T11:57:10.893Z,22.60
2019-05-10T11:59:41.469Z,22.60
2019-05-10T12:02:10.339Z,22.60
2019-05-10T12:04:39.619Z,22.60
2019-05-10T12:07:09.798Z,22.60
2019-05-10T12:09:35.993Z,22.60
2019-05-10T12:12:03.745Z,22.60
2019-05-10T12:14:31.351Z,22.60
2019-05-10T12:17:05.621Z,22.60
2019-05-10T12:19:36.936Z,22.60
2019-05-10T12:21:57.510Z,22.60
2019-05-10T12:24:39.212Z,22.60
2019-05-10T12:29:23.814Z,22.60
2019-05-10T12:31:55.091Z,22.60
2019-05-10T12:34:20.864Z,22.60
2019-05-10T12:36:48.477Z,22.60
2019-05-10T12:39:16.038Z,22.60
2019-05-10T12:41:48.375Z,22.60
2019-05-10T12:44:12.968Z,22.60
2019-05-10T12:46:42.210Z,22.60
2019-05-10T12:49:11.965Z,22.60
2019-05-10T12:51:40.933Z,22.60
2019-05-10T12:54:11.248Z,22.60
2019-05-10T12:56:43.906Z,22.60
2019-05-10T12:59:07.722Z,22.60
2019-05-10T13:01:35.361Z,22.60
2019-05-10T13:04:13.421Z,22.60
2019-05-10T13:06:32.290Z,22.60
2019-05-10T13:08:59.876Z,22.50
2019-05-10T13:11:27.452Z,22.50
2019-05-10T13:13:55.079Z,22.40
2019-05-10T13:16:22.693Z,22.30
2019-05-10T13:18:52.531Z,22.20
2019-05-10T13:21:21.482Z,22.10
2019-05-10T13:23:53.360Z,22.00
2019-05-10T13:26:18.229Z,21.90
2019-05-10T13:28:45.799Z,21.90
2019-05-10T13:31:15.154Z,21.80
2019-05-10T13:33:44.429Z,21.80
2019-05-10T13:36:12.163Z,21.70
2019-05-10T13:38:43.924Z,21.80
2019-05-10T13:41:09.043Z,21.80
2019-05-10T13:43:36.679Z,21.70
2019-05-10T13:46:04.282Z,21.60
2019-05-10T13:48:31.837Z,21.60
2019-05-10T13:50:59.491Z,21.50
2019-05-10T13:53:27.036Z,21.40
2019-05-10T13:55:54.602Z,21.50
2019-05-10T13:58:22.185Z,21.70
2019-05-10T14:00:49.768Z,21.80
2019-05-10T14:03:17.360Z,21.90
2019-05-10T14:05:44.990Z,22.00
2019-05-10T14:08:12.537Z,22.00
2019-05-10T14:10:40.136Z,22.10
2019-05-10T14:13:07.727Z,22.20
2019-05-10T14:15:35.390Z,22.20
2019-05-10T14:18:03.027Z,22.20
2019-05-10T14:20:30.728Z,22.20
2019-05-10T14:23:01.009Z,22.30
2019-05-10T14:25:36.447Z,22.30
2019-05-10T14:27:58.024Z,22.40
2019-05-10T14:30:25.613Z,22.40
2019-05-10T14:32:53.158Z,22.40
2019-05-10T14:35:40.184Z,22.40
2019-05-10T14:38:10.472Z,22.50
2019-05-10T14:40:37.201Z,22.50
2019-05-10T14:43:04.801Z,22.50
2019-05-10T14:45:32.396Z,22.50
2019-05-10T14:47:59.970Z,22.50
2019-05-10T14:50:28.501Z,22.50
2019-05-10T14:52:56.282Z,22.50
2019-05-10T14:55:28.095Z,22.50
2019-05-10T14:57:53.340Z,22.50
2019-05-10T15:00:20.932Z,22.50
2019-05-10T15:02:48.502Z,22.50
2019-05-10T15:05:18.099Z,22.50
2019-05-10T15:07:45.860Z,22.50
2019-05-10T15:10:13.464Z,22.60
2019-05-10T15:12:41.090Z,22.50
2019-05-10T15:15:09.145Z,22.50
2019-05-10T15:17:36.749Z,22.50
2019-05-10T15:20:05.929Z,22.50
2019-05-10T15:22:35.556Z,22.50
2019-05-10T15:25:03.498Z,22.60
2019-05-10T15:27:31.067Z,22.50
2019-05-10T15:30:05.293Z,22.50
2019-05-10T15:32:27.959Z,22.50
2019-05-10T15:35:06.084Z,22.50
2019-05-10T15:37:25.062Z,22.50
2019-05-10T15:39:52.637Z,22.50
2019-05-10T15:42:22.042Z,22.50
2019-05-10T15:44:49.644Z,22.50
2019-05-10T15:47:20.473Z,22.60
2019-05-10T15:49:46.557Z,22.60
2019-05-10T15:52:17.795Z,22.60
2019-05-10T15:54:45.059Z,22.60
2019-05-10T15:57:14.497Z,22.60
2019-05-10T15:59:42.145Z,22.60
2019-05-10T16:02:09.723Z,22.70
2019-05-10T16:04:37.384Z,22.70
2019-05-10T16:07:09.441Z,22.80
2019-05-10T16:09:34.453Z,22.90
2019-05-10T16:12:08.011Z,23.00
2019-05-10T16:14:38.424Z,23.10
2019-05-10T16:17:00.733Z,23.10
2019-05-10T16:19:28.349Z,23.20
2019-05-10T16:21:58.105Z,23.40
2019-05-10T16:24:26.235Z,23.40
2019-05-10T16:26:59.876Z,23.30
2019-05-10T16:29:23.919Z,23.30
2019-05-10T16:31:51.525Z,23.30
2019-05-10T16:34:19.144Z,23.20
2019-05-10T16:36:46.726Z,23.20
2019-05-10T16:39:14.284Z,23.20
2019-05-10T16:41:41.857Z,23.20
2019-05-10T16:44:09.494Z,23.20
2019-05-10T16:46:37.062Z,23.20
2019-05-10T16:49:10.191Z,23.20
2019-05-10T16:51:34.006Z,23.10
2019-05-10T16:54:01.573Z,23.10
2019-05-10T16:56:29.216Z,23.10
2019-05-10T16:58:59.400Z,23.10
2019-05-10T17:01:27.753Z,23.10
2019-05-10T17:04:00.085Z,23.10
2019-05-10T17:06:24.781Z,23.10
2019-05-10T17:08:52.353Z,23.10
2019-05-10T17:11:19.955Z,23.10
2019-05-10T17:13:47.555Z,23.10
2019-05-10T17:16:17.001Z,23.10
2019-05-10T17:18:44.468Z,23.10
2019-05-10T17:21:12.071Z,23.10
2019-05-10T17:23:41.618Z,23.10
2019-05-10T17:26:09.009Z,23.10
2019-05-10T17:28:37.427Z,23.20
2019-05-10T17:31:07.574Z,23.10
2019-05-10T17:33:36.820Z,23.10
2019-05-10T17:36:08.519Z,23.10
2019-05-10T17:38:33.131Z,23.10
2019-05-10T17:41:00.794Z,23.10
2019-05-10T17:43:28.461Z,23.10
2019-05-10T17:45:56.067Z,23.10
2019-05-10T17:48:23.651Z,23.20
2019-05-10T17:50:51.226Z,23.20
2019-05-10T17:53:18.829Z,23.10
2019-05-10T17:55:49.344Z,23.10
2019-05-10T17:58:17.213Z,23.10
2019-05-10T18:00:45.556Z,23.10
2019-05-10T18:03:13.146Z,23.10
2019-05-10T18:05:41.237Z,23.10
2019-05-10T18:08:10.060Z,23.10
2019-05-10T18:10:37.642Z,23.00
2019-05-10T18:13:05.349Z,23.10
2019-05-10T18:15:34.501Z,23.00
2019-05-10T18:18:03.105Z,23.00
2019-05-10T18:20:41.168Z,23.00
2019-05-10T18:23:00.840Z,23.00
2019-05-10T18:25:28.409Z,23.00
2019-05-10T18:27:55.982Z,23.00
2019-05-10T18:30:23.565Z,22.90
2019-05-10T18:32:51.144Z,22.90
2019-05-10T18:35:18.750Z,22.90
2019-05-10T18:37:46.331Z,22.90
2019-05-10T18:40:17.196Z,22.90
2019-05-10T18:42:44.757Z,22.90
2019-05-10T18:45:12.408Z,22.90
2019-05-10T18:47:40.013Z,22.90
2019-05-10T18:50:07.574Z,22.80
2019-05-10T18:52:35.134Z,22.90
2019-05-10T18:55:02.759Z,22.80
2019-05-10T18:57:30.444Z,22.90
2019-05-10T18:59:58.026Z,22.80
2019-05-10T19:02:25.584Z,22.90
2019-05-10T19:04:54.281Z,22.90
2019-05-10T19:07:22.052Z,22.90
2019-05-10T19:09:49.618Z,22.80
2019-05-10T19:12:21.436Z,22.80
2019-05-10T19:14:46.697Z,22.90
2019-05-10T19:17:14.291Z,22.90
2019-05-10T19:19:42.369Z,22.80
2019-05-10T19:22:10.370Z,22.80
2019-05-10T19:24:38.077Z,22.80
2019-05-10T19:27:07.567Z,22.80
2019-05-10T19:29:38.846Z,22.80
2019-05-10T19:32:04.332Z,22.80
2019-05-10T19:34:31.896Z,22.80
2019-05-10T19:36:59.522Z,22.80
2019-05-10T19:39:27.123Z,22.80
2019-05-10T19:42:03.064Z,22.80
2019-05-10T19:44:24.072Z,22.80
2019-05-10T19:46:51.741Z,22.80
2019-05-10T19:49:19.311Z,22.80
2019-05-10T19:51:49.057Z,22.80
2019-05-10T19:54:19.625Z,22.80
2019-05-10T19:56:45.493Z,22.80
2019-05-10T19:59:13.572Z,22.80
2019-05-10T20:01:44.778Z,22.80
2019-05-10T20:04:10.557Z,22.80
2019-05-10T20:06:38.138Z,22.80
2019-05-10T20:09:06.435Z,22.80
2019-05-10T20:11:34.181Z,22.80
2019-05-10T20:14:01.808Z,22.80
2019-05-10T20:16:29.393Z,22.80
2019-05-10T20:18:56.964Z,22.80
2019-05-10T20:21:24.583Z,22.80
2019-05-10T20:23:52.191Z,22.80
2019-05-10T20:26:19.766Z,22.80
2019-05-10T20:28:47.378Z,22.80
2019-05-10T20:31:14.938Z,22.80
2019-05-10T20:33:42.528Z,22.80
2019-05-10T20:36:10.128Z,22.80
2019-05-10T20:38:37.762Z,22.80
2019-05-10T20:41:05.376Z,22.80
2019-05-10T20:43:32.940Z,22.80
2019-05-10T20:46:00.523Z,22.80
2019-05-10T20:48:28.125Z,22.80
2019-05-10T20:50:55.699Z,22.80
2019-05-10T20:53:23.296Z,22.80
2019-05-10T20:55:50.909Z,22.80
2019-05-10T20:58:18.490Z,22.80
2019-05-10T21:00:46.081Z,22.80
2019-05-10T21:03:13.675Z,22.80
2019-05-10T21:05:41.343Z,22.80
2019-05-10T21:08:16.459Z,22.80
2019-05-10T21:10:38.265Z,22.80
2019-05-10T21:13:05.839Z,22.80
2019-05-10T21:15:33.412Z,22.80
2019-05-10T21:18:00.982Z,22.80
2019-05-10T21:20:28.591Z,22.80
2019-05-10T21:22:59.173Z,22.80
2019-05-10T21:25:26.920Z,22.80
2019-05-10T21:27:56.117Z,22.80
2019-05-10T21:30:23.661Z,22.80
2019-05-10T21:32:51.253Z,22.80
2019-05-10T21:35:18.841Z,22.80
2019-05-10T21:37:46.420Z,22.80
2019-05-10T21:40:14.034Z,22.90
2019-05-10T21:42:41.651Z,22.90
2019-05-10T21:45:09.266Z,22.90
2019-05-10T21:47:50.664Z,22.80
2019-05-10T21:50:06.367Z,22.90
2019-05-10T21:52:33.952Z,22.90
2019-05-10T21:55:01.541Z,22.90
2019-05-10T21:57:29.318Z,22.90
2019-05-10T21:59:56.886Z,22.90
2019-05-10T22:02:24.491Z,22.90
2019-05-10T22:04:52.063Z,22.90
2019-05-10T22:07:19.665Z,22.90
2019-05-10T22:09:47.290Z,22.90
2019-05-10T22:12:14.893Z,22.90
2019-05-10T22:14:42.476Z,22.90
2019-05-10T22:17:10.065Z,22.90
2019-05-10T22:19:37.665Z,22.90
2019-05-10T22:22:05.302Z,22.90
2019-05-10T22:24:32.865Z,22.90
2019-05-10T22:27:00.466Z,22.90
2019-05-10T22:29:28.019Z,22.90
2019-05-10T22:31:55.627Z,22.90
2019-05-10T22:34:23.266Z,22.90
2019-05-10T22:36:50.851Z,22.90
2019-05-10T22:39:18.447Z,22.90
2019-05-10T22:41:46.006Z,22.90
2019-05-10T22:44:13.599Z,22.90
2019-05-10T22:46:41.940Z,22.90
2019-05-10T22:49:09.551Z,22.90
2019-05-10T22:51:37.149Z,22.90
2019-05-10T22:54:04.724Z,22.90
2019-05-10T22:56:32.305Z,22.90
2019-05-10T22:58:59.911Z,22.90
2019-05-10T23:01:27.494Z,22.80
2019-05-10T23:03:55.055Z,22.90
2019-05-10T23:06:22.656Z,22.90
2019-05-10T23:08:50.237Z,22.80
2019-05-10T23:11:17.843Z,22.90
2019-05-10T23:13:45.466Z,22.80
2019-05-10T23:16:13.051Z,22.80
2019-05-10T23:18:40.633Z,22.80
2019-05-10T23:21:08.216Z,22.80
2019-05-10T23:23:35.785Z,22.80
2019-05-10T23:26:03.421Z,22.80
2019-05-10T23:28:30.966Z,22.80
2019-05-10T23:30:58.595Z,22.80
2019-05-10T23:33:26.267Z,22.80
2019-05-10T23:35:54.143Z,22.80
2019-05-10T23:38:21.759Z,22.80
2019-05-10T23:40:49.370Z,22.80
2019-05-10T23:43:16.948Z,22.80
2019-05-10T23:45:44.580Z,22.80
2019-05-10T23:48:12.175Z,22.80
2019-05-10T23:50:39.753Z,22.80
2019-05-10T23:53:07.362Z,22.80
2019-05-10T23:55:34.915Z,22.80
2019-05-10T23:58:02.517Z,22.70
